Grande-Entree, Canada
Current Conditions -  °F | °C
As of 12:00 PM on Thursday 30 Oct 2014 (Local Time) from CYGR Reporting Station
Few Clouds Few Clouds  
Wind Chill: 52°   Ceiling: Unl
Heat Index: 52°   Visibility: 20mi
Dew Point: 45°   Wind: 18mph
Humidity: 76%   Direction: 260°W
Pressure: 29.7"   Gusts: NA
Location:  47.55°N, 61.57°W
Report Text: CYGR 301500Z 26016KT 20SM FEW025 FEW250 11/07 A2970 RMK SC1CI1 SC TR SLP059
Loading
Personal Weather Stations






























Interactive Weather Map
Tropical Storm Tracking
New forecast layout! Learn more

10-Day Weather Forecast

Advertisements
Track Severe Weather on mobile